• Join FlightAware (Why Join?)
  • Login
  • US Flag 
04:31PM EDT


 

Airport Tracker/Info


-or-


 

Live Flight TrackerFlight Track Log ✈ DAL1903 ✈ 19-Apr-2013 ✈ KLGA - KSRQ

Flight Track Log - Related Links

Times and Time Zones

All times are in EDT time to prevent confusion due to time zone crossing. See the DAL1903 flight status page for this flight to view local times or setup timezone preferences in your user account.

Time Position Orientation Groundspeed Altitude Reporting Facility
EDT Latitude Longitude Course Direction KTS MPH feet Rate Location/Type
12:02PM 40.7333 -73.8167 242° Southwest 198 228 2,300  Level New York TRACON
12:03PM 40.7000 -73.8667 229° Southwest 225 259 4,800 2,820 Climbing New York TRACON
12:04PM 40.6382 -74.2647 244° Southwest  Level FlightAware Approximate
12:04PM 40.7333 -73.9500 298° West 261 300 8,000  Level New York TRACON
12:05PM 40.5897 -74.3975 246° West  Level FlightAware Approximate
12:05PM 40.7833 -74.0333 308° West 288 331 10,000  Level New York TRACON
12:06PM 40.5448 -74.5324 246° West  Level FlightAware Approximate
12:06PM 40.8000 -74.1333 282° West 315 362 11,500  Level New York TRACON
12:07PM 40.5063 -74.6677 242° Southwest  Level FlightAware Approximate
12:08PM 40.7392 -74.3317 248° West 353 406 14,600  Level New York Center
12:09PM 40.6814 -74.4461 236° Southwest 363 418 16,500 1,980 Climbing New York Center
12:10PM 40.6197 -74.5578 234° Southwest 374 430 18,600 1,740 Climbing New York Center
12:11PM 40.5581 -74.6608 232° Southwest 395 455 20,100 1,500 Climbing New York Center
12:12PM 40.4892 -74.7825 233° Southwest 406 467 21,700 1,620 Climbing New York Center
12:13PM 40.4206 -74.9039 233° Southwest 412 474 23,400 1,620 Climbing New York Center
12:15PM 40.3232 -75.0860 227° Southwest  Level FlightAware Approximate
12:16PM 40.1983 -75.2764 227° Southwest 424 488 28,300  Level New York Center
12:17PM 40.1250 -75.3967 231° Southwest 424 488 29,800 1,440 Climbing New York Center
12:18PM 40.0456 -75.5053 226° Southwest 429 494 31,300 1,020 Climbing New York Center
12:19PM 39.9683 -75.6136 227° Southwest 424 488 31,900 240 Climbing New York Center
12:20PM 39.8906 -75.7275 228° Southwest 424 488 31,900  Level New York Center
12:21PM 39.8189 -75.8414 231° Southwest 424 488 32,000  Climbing New York Center
12:23PM 39.6458 -76.1144 231° Southwest 409 471 32,000  Level Washington Center
12:24PM 39.5703 -76.2269 229° Southwest 409 471 32,000  Level Washington Center
12:25PM 39.4967 -76.3392 230° Southwest 414 476 32,000  Level Washington Center
12:26PM 39.4292 -76.4514 232° Southwest 414 476 32,000  Level Washington Center
12:27PM 39.3556 -76.5658 230° Southwest 413 475 32,000  Level Washington Center
12:28PM 39.2858 -76.6669 228° Southwest 408 470 32,000  Level Washington Center
12:29PM 39.2139 -76.7783 230° Southwest 408 470 32,000  Level Washington Center
12:30PM 39.1419 -76.8922 231° Southwest 413 475 32,000  Level Washington Center
12:31PM 39.0697 -77.0033 230° Southwest 413 475 32,000  Level Washington Center
12:32PM 38.9894 -77.1031 224° Southwest 413 475 32,000  Level Washington Center
12:33PM 38.9006 -77.1975 220° Southwest 408 470 32,000  Level Washington Center
12:34PM 38.8139 -77.2914 220° Southwest 408 470 32,000  Level Washington Center
12:35PM 38.7269 -77.3878 221° Southwest 413 475 32,000  Level Washington Center
12:36PM 38.6400 -77.4842 221° Southwest 413 475 32,000  Level Washington Center
12:37PM 38.5508 -77.5800 220° Southwest 413 475 32,000  Level Washington Center
12:38PM 38.4658 -77.6733 221° Southwest 413 475 32,000  Level Washington Center
12:39PM 38.3786 -77.7689 221° Southwest 413 475 32,000 120 Level Washington Center
12:40PM 38.2894 -77.8614 219° Southwest 413 475 32,300 420 Climbing Washington Center
12:41PM 38.1958 -77.9617 220° Southwest 413 475 32,900 300 Climbing Washington Center
12:42PM 38.1083 -78.0567 221° Southwest 413 475 33,000  Climbing Washington Center
12:43PM 38.0250 -78.1486 221° Southwest 413 475 33,000  Level Washington Center
12:44PM 37.9483 -78.2197 216° Southwest 405 466 33,000  Level Washington Center
12:45PM 37.8592 -78.3008 216° Southwest 405 466 33,000 360 Level Washington Center
12:46PM 37.7694 -78.3844 216° Southwest 405 466 33,800 480 Climbing Washington Center
12:47PM 37.6800 -78.4703 217° Southwest 405 466 34,000 60 Climbing Washington Center
12:48PM 37.5817 -78.5608 216° Southwest 405 466 34,000  Level Washington Center
12:49PM 37.4919 -78.6464 217° Southwest 405 466 34,000  Level Washington Center
12:50PM 37.4042 -78.7319 218° Southwest 405 466 34,000  Level Washington Center
12:51PM 37.3144 -78.8117 215° Southwest 405 466 34,000  Level Washington Center
12:52PM 37.2267 -78.8967 218° Southwest 400 460 34,000  Level Washington Center
12:53PM 37.1475 -78.9714 217° Southwest 400 460 34,000  Level Washington Center
12:54PM 37.0553 -79.0533 215° Southwest 400 460 34,000  Level Washington Center
12:55PM 36.9675 -79.1325 216° Southwest 400 460 34,000  Level Washington Center
12:56PM 36.8794 -79.2142 217° Southwest 400 460 34,000  Level Washington Center
12:57PM 36.7917 -79.2931 216° Southwest 400 460 34,000  Level Washington Center
12:58PM 36.6969 -79.3817 217° Southwest 400 460 34,000  Level Washington Center
12:59PM 36.6067 -79.4628 216° Southwest 400 460 34,000  Level Washington Center
01:00PM 36.5208 -79.5411 216° Southwest 400 460 34,000  Level Washington Center
01:01PM 36.4344 -79.6219 217° Southwest 400 460 34,000  Level Washington Center
01:04PM 36.2050 -79.8292 216° Southwest 384 442 34,000  Level Atlanta Center
01:05PM 36.1161 -79.9083 216° Southwest 376 433 34,000 -120 Level Atlanta Center
01:06PM 36.0289 -79.9819 214° Southwest 376 433 33,800 -900 Descending Atlanta Center
01:07PM 35.9283 -80.0358 203° Southwest 383 441 32,300 -2,100 Descending Atlanta Center
01:08PM 35.8133 -80.0925 202° Southwest 396 456 29,700 -2,100 Descending Atlanta Center
01:09PM 35.7047 -80.1492 203° Southwest 408 470 28,200 -900 Descending Atlanta Center
01:10PM 35.6000 -80.2075 204° Southwest 419 482 28,000 -120 Descending Atlanta Center
01:11PM 35.4931 -80.2586 201° Southwest 419 482 28,000  Level Atlanta Center
01:12PM 35.4006 -80.3036 202° Southwest 409 471 28,000  Level Atlanta Center
01:13PM 35.3000 -80.3539 202° Southwest 391 450 28,000  Level Atlanta Center
01:14PM 35.2014 -80.4042 203° Southwest 391 450 28,000  Level Atlanta Center
01:16PM 35.0236 -80.4922 202° Southwest 406 467 28,000  Level Jacksonville Center
01:17PM 34.9181 -80.5431 202° Southwest 401 461 28,000  Level Jacksonville Center
01:18PM 34.8169 -80.5939 202° Southwest 401 461 28,000  Level Jacksonville Center
01:19PM 34.7322 -80.6367 203° Southwest 396 456 28,000  Level Jacksonville Center
01:20PM 34.6142 -80.6928 201° Southwest 400 460 28,000  Level Jacksonville Center
01:21PM 34.5128 -80.7433 202° Southwest 410 472 28,000  Level Jacksonville Center
01:22PM 34.4072 -80.7936 201° Southwest 411 473 28,000  Level Jacksonville Center
01:23PM 34.3142 -80.8411 203° Southwest 403 464 28,000  Level Jacksonville Center
01:24PM 34.2169 -80.8861 201° Southwest 387 445 28,000  Level Jacksonville Center
01:25PM 34.1114 -80.9361 201° Southwest 398 458 28,000  Level Jacksonville Center
01:26PM 34.0056 -80.9861 201° Southwest 403 464 28,000  Level Jacksonville Center
01:27PM 33.9019 -81.0336 201° Southwest 403 464 28,000  Level Jacksonville Center
01:28PM 33.7964 -81.0856 202° Southwest 409 471 28,000  Level Jacksonville Center
01:29PM 33.6947 -81.1378 203° Southwest 409 471 28,000  Level Jacksonville Center
01:30PM 33.5911 -81.1897 203° Southwest 409 471 28,000  Level Jacksonville Center
01:31PM 33.4875 -81.2414 203° Southwest 409 471 28,000  Level Jacksonville Center
01:32PM 33.3881 -81.2931 203° Southwest 409 471 28,000  Level Jacksonville Center
01:33PM 33.2822 -81.3422 201° Southwest 409 471 28,000  Level Jacksonville Center
01:34PM 33.1825 -81.3911 202° Southwest 409 471 28,000  Level Jacksonville Center
01:35PM 33.0767 -81.4422 202° Southwest 409 471 28,000  Level Jacksonville Center
01:36PM 32.9750 -81.4936 203° Southwest 409 471 28,000  Level Jacksonville Center
01:37PM 32.8692 -81.5422 201° Southwest 409 471 28,000  Level Jacksonville Center
01:38PM 32.7672 -81.5906 202° Southwest 409 471 28,000  Level Jacksonville Center
01:39PM 32.6636 -81.6439 203° Southwest 409 471 28,000  Level Jacksonville Center
01:40PM 32.5408 -81.7022 202° Southwest 419 482 28,000  Level Jacksonville Center
01:41PM 32.4286 -81.7556 202° Southwest 431 496 28,000  Level Jacksonville Center
01:42PM 32.3289 -81.8058 203° Southwest 436 502 28,000  Level Jacksonville Center
01:43PM 32.2042 -81.8639 201° Southwest 435 501 28,000  Level Jacksonville Center
01:44PM 32.1022 -81.9117 202° Southwest 435 501 28,000  Level Jacksonville Center
01:45PM 31.9794 -81.9667 201° Southwest 435 501 28,000  Level Jacksonville Center
01:46PM 31.8650 -82.0144 200° South 435 501 28,000  Level Jacksonville Center
01:47PM 31.7544 -82.0375 190° South 435 501 28,000  Level Jacksonville Center
01:48PM 31.6314 -82.0533 186° South 451 519 28,000  Level Jacksonville Center
01:49PM 31.5061 -82.0689 186° South 457 526 28,000  Level Jacksonville Center
01:50PM 31.3811 -82.0822 185° South 457 526 28,000  Level Jacksonville Center
01:51PM 31.2578 -82.1003 187° South 457 526 28,000  Level Jacksonville Center
01:52PM 31.1328 -82.1158 186° South 457 526 28,000  Level Jacksonville Center
01:53PM 31.0075 -82.1292 185° South 463 533 28,000  Level Jacksonville Center
01:54PM 30.8844 -82.1422 185° South 463 533 28,000  Level Jacksonville Center
01:55PM 30.7572 -82.1553 185° South 463 533 28,000  Level Jacksonville Center
01:56PM 30.6319 -82.1708 186° South 463 533 28,000  Level Jacksonville Center
01:57PM 30.4942 -82.1814 184° South 454 522 28,000  Level Jacksonville Center
01:58PM 30.3647 -82.1825 180° South 461 531 28,000 -360 Level Jacksonville Center
01:59PM 30.2394 -82.1786 178° South 467 537 27,300 -540 Descending Jacksonville Center
02:00PM 30.1119 -82.1722 178° South 462 532 27,000 -180 Descending Jacksonville Center
02:01PM 29.9953 -82.1706 179° South 462 532 27,000 -60 Level Jacksonville Center
02:02PM 29.8678 -82.1669 179° South 462 532 26,900 -540 Descending Jacksonville Center
02:03PM 29.7403 -82.1583 177° South 462 532 26,000 -480 Descending Jacksonville Center
02:04PM 29.6150 -82.1425 174° South 462 532 26,000 -60 Level Jacksonville Center
02:05PM 29.4875 -82.1100 167° South 462 532 25,900  Descending Jacksonville Center
02:06PM 29.3683 -82.0872 171° South 462 532 26,000 -780 Climbing Jacksonville Center
02:07PM 29.2472 -82.0906 181° South 447 514 24,400 -1,500 Descending Jacksonville Center
02:08PM 29.1325 -82.0961 182° South 427 491 23,100 -2,340 Descending Jacksonville Center
02:09PM 29.0200 -82.1042 184° South 411 473 19,800 -3,000 Descending Jacksonville Center
02:10PM 28.9072 -82.1050 180° South 411 473 17,200 -2,520 Descending Jacksonville Center
02:11PM 28.7333 -82.1167 183° South 376 433 13,500 -2,040 Descending Tampa TRACON
02:12PM 28.6333 -82.1167 180° South 365 420 12,000 -1,320 Descending Tampa TRACON
02:13PM 28.5333 -82.1000 172° South 357 411 11,100 -540 Descending Tampa TRACON
02:14PM 28.4667 -82.1500 213° Southwest 317 365 11,000 -480 Descending Tampa TRACON
02:15PM 28.4000 -82.2167 221° Southwest 297 342 10,100 -1,200 Descending Tampa TRACON
02:16PM 28.3333 -82.2667 213° Southwest 270 311 8,500 -1,140 Descending Tampa TRACON
02:17PM 28.2667 -82.3000 204° Southwest 265 305 8,000 -300 Descending Tampa TRACON
02:18PM 28.1833 -82.3000 180° South 267 307 8,000 -420 Level Tampa TRACON
02:19PM 28.1167 -82.3000 180° South 265 305 7,200 -840 Descending Tampa TRACON
02:20PM 28.0500 -82.3000 180° South 263 303 6,500 -600 Descending Tampa TRACON
02:21PM 27.9833 -82.3000 180° South 262 302 6,000 -300 Descending Tampa TRACON
02:22PM 27.9000 -82.3167 190° South 261 300 6,000  Level Tampa TRACON
02:23PM 27.8167 -82.3333 190° South 261 300 6,000  Level Tampa TRACON
02:24PM 27.7500 -82.3667 204° Southwest 266 306 6,100  Climbing Tampa TRACON
02:25PM 27.7000 -82.4167 222° Southwest 261 300 6,000 -60 Descending Tampa TRACON
02:26PM 27.6500 -82.4667 222° Southwest 264 304 6,000 -360 Level Tampa TRACON
02:27PM 27.6167 -82.5333 241° Southwest 233 268 5,300 -900 Descending Tampa TRACON
02:28PM 27.6000 -82.5833 249° West 194 223 4,200 -1,200 Descending Tampa TRACON
02:29PM 27.5500 -82.6167 211° Southwest 168 193 2,900 -1,080 Descending Tampa TRACON
02:30PM 27.5167 -82.6333 204° Southwest 164 189 2,000 -840 Descending Tampa TRACON